Time;durP1;ratioP1;P1;durP2;ratioP2;P2;SDS_P1;SDS_P2;PMS_P1;PMS_P2;Temp;Humidity;BMP_temperature;BMP_pressure;BME280_temperature;BME280_humidity;BME280_pressure;Samples;Min_cycle;Max_cycle;Signal;HPM_P1;HPM_P2
2024/03/09 00:01:19;;;;;;;51.00;23.97;;;2.50;99.90;;;;;;4188793;28;20453;-76
2024/03/09 00:03:23;;;;;;;48.97;21.80;;;2.50;99.90;;;;;;4192588;28;20469;-77
2024/03/09 00:05:25;;;;;;;46.73;21.33;;;2.50;99.90;;;;;;4193969;28;20467;-76
2024/03/09 00:07:27;;;;;;;52.23;23.10;;;2.40;99.90;;;;;;4190756;28;20465;-76
2024/03/09 00:09:34;;;;;;;54.00;22.20;;;2.50;99.90;;;;;;4190662;28;20440;-78
2024/03/09 00:11:36;;;;;;;50.37;22.77;;;2.50;99.90;;;;;;4191235;28;20456;-77
2024/03/09 00:13:40;;;;;;;49.70;23.20;;;2.50;99.90;;;;;;4186492;28;20444;-78
2024/03/09 00:15:42;;;;;;;46.53;21.77;;;2.50;99.90;;;;;;4192573;28;20448;-77
2024/03/09 00:17:44;;;;;;;48.10;22.13;;;2.40;99.90;;;;;;4188192;28;20441;-77
2024/03/09 00:19:48;;;;;;;49.37;20.90;;;2.40;99.90;;;;;;4189139;28;20448;-77
2024/03/09 00:21:55;;;;;;;44.50;20.23;;;2.40;99.90;;;;;;4191767;28;20444;-78
2024/03/09 00:23:57;;;;;;;50.63;21.93;;;2.30;99.90;;;;;;4189401;28;20464;-78
2024/03/09 00:25:59;;;;;;;47.60;21.53;;;2.30;99.90;;;;;;4188910;28;20485;-78
2024/03/09 00:28:02;;;;;;;45.10;20.03;;;2.30;99.90;;;;;;4190385;28;20452;-77
2024/03/09 00:30:06;;;;;;;45.23;21.17;;;2.20;99.90;;;;;;4186508;28;20449;-78
2024/03/09 00:32:08;;;;;;;44.17;19.97;;;2.20;99.90;;;;;;4188487;28;20503;-77
2024/03/09 00:34:10;;;;;;;45.20;19.93;;;2.20;99.90;;;;;;4184198;28;20465;-76
2024/03/09 00:36:17;;;;;;;48.20;20.57;;;2.20;99.90;;;;;;4190066;28;20480;-77
2024/03/09 00:38:19;;;;;;;45.97;20.60;;;2.20;99.90;;;;;;4188017;28;20447;-77
2024/03/09 00:40:20;;;;;;;46.63;20.30;;;2.20;99.90;;;;;;4189977;28;20544;-76
2024/03/09 00:42:25;;;;;;;43.37;19.07;;;2.10;99.90;;;;;;4187965;28;20482;-78
2024/03/09 00:44:26;;;;;;;51.23;21.87;;;2.10;99.90;;;;;;4187696;28;20201;-78
2024/03/09 00:46:28;;;;;;;43.43;19.20;;;2.10;99.90;;;;;;4191796;28;20480;-78
2024/03/09 00:48:30;;;;;;;46.27;19.33;;;2.00;99.90;;;;;;4187853;28;20229;-74
2024/03/09 00:50:32;;;;;;;43.40;20.40;;;2.00;99.90;;;;;;4188615;28;20473;-77
2024/03/09 00:52:35;;;;;;;46.13;19.70;;;2.00;99.90;;;;;;4191472;28;20456;-77
2024/03/09 00:54:37;;;;;;;42.47;19.13;;;2.00;99.90;;;;;;4186662;28;20476;-78
2024/03/09 00:56:39;;;;;;;47.13;20.53;;;1.90;99.90;;;;;;4191012;28;20472;-77
2024/03/09 00:58:42;;;;;;;39.73;19.27;;;1.90;99.90;;;;;;4192577;28;20942;-78
2024/03/09 01:00:47;;;;;;;41.80;18.90;;;1.90;99.90;;;;;;4193519;28;20443;-78
2024/03/09 01:02:50;;;;;;;42.40;19.03;;;1.90;99.90;;;;;;4190223;28;20530;-77
2024/03/09 01:04:54;;;;;;;41.40;19.03;;;1.80;99.90;;;;;;4192978;28;20940;-74
2024/03/09 01:06:58;;;;;;;41.97;18.47;;;1.80;99.90;;;;;;4188841;28;20476;-76
2024/03/09 01:09:02;;;;;;;41.43;18.70;;;1.80;99.90;;;;;;4185940;28;20494;-76
2024/03/09 01:11:05;;;;;;;42.73;17.93;;;1.80;99.90;;;;;;4189273;28;20502;-76
2024/03/09 01:13:08;;;;;;;39.50;17.87;;;1.70;99.90;;;;;;4186284;28;20487;-76
2024/03/09 01:15:11;;;;;;;39.87;18.37;;;1.80;99.90;;;;;;4186865;28;20433;-76
2024/03/09 01:17:13;;;;;;;41.00;16.53;;;1.70;99.90;;;;;;4185799;28;20468;-75
2024/03/09 01:19:15;;;;;;;42.10;19.43;;;1.70;99.90;;;;;;4182675;28;20497;-76
2024/03/09 01:21:17;;;;;;;43.83;18.53;;;1.70;99.90;;;;;;4184537;28;20444;-77
2024/03/09 01:23:19;;;;;;;39.17;17.07;;;1.70;99.90;;;;;;4188349;28;20444;-77
2024/03/09 01:25:22;;;;;;;40.03;17.90;;;1.70;99.90;;;;;;4185206;28;20528;-77
2024/03/09 01:27:25;;;;;;;40.90;17.37;;;1.60;99.90;;;;;;4184266;28;20473;-77
2024/03/09 01:29:27;;;;;;;38.97;16.87;;;1.60;99.90;;;;;;4185849;28;20443;-76
2024/03/09 01:31:29;;;;;;;38.27;16.87;;;1.60;99.90;;;;;;4187711;28;20441;-76
2024/03/09 01:33:31;;;;;;;39.67;18.17;;;1.60;99.90;;;;;;4185538;28;20531;-76
2024/03/09 01:35:34;;;;;;;37.57;17.37;;;1.50;99.90;;;;;;4189309;28;20815;-77
2024/03/09 01:37:36;;;;;;;38.87;17.27;;;1.60;99.90;;;;;;4196230;28;20521;-77
2024/03/09 01:39:38;;;;;;;40.73;18.00;;;1.60;99.90;;;;;;4198815;28;21428;-77
2024/03/09 01:41:41;;;;;;;40.70;16.83;;;1.50;99.90;;;;;;4198749;28;20478;-77
2024/03/09 01:43:42;;;;;;;37.57;17.53;;;1.50;99.90;;;;;;4190309;28;20909;-77
2024/03/09 01:45:45;;;;;;;42.03;17.97;;;1.50;99.90;;;;;;4189454;28;20479;-76
2024/03/09 01:47:47;;;;;;;41.50;18.07;;;1.50;99.90;;;;;;4191727;28;20464;-77
2024/03/09 01:49:49;;;;;;;37.43;17.17;;;1.50;99.90;;;;;;4190990;28;20449;-77
2024/03/09 01:51:52;;;;;;;39.50;17.63;;;1.50;99.90;;;;;;4200607;28;20444;-76
2024/03/09 01:53:54;;;;;;;40.03;17.50;;;1.50;99.90;;;;;;4198508;28;20445;-76
2024/03/09 01:55:59;;;;;;;39.03;16.87;;;1.50;99.90;;;;;;4200706;28;20980;-76
2024/03/09 01:58:04;;;;;;;37.97;17.07;;;1.50;99.90;;;;;;4209307;28;20444;-75
2024/03/09 02:00:10;;;;;;;37.33;16.73;;;1.50;99.90;;;;;;4203441;28;20444;-75
2024/03/09 02:02:13;;;;;;;37.70;16.20;;;1.40;99.90;;;;;;4195761;28;20447;-76
2024/03/09 02:04:19;;;;;;;40.77;17.77;;;1.40;99.90;;;;;;4198222;28;20792;-76
2024/03/09 02:06:21;;;;;;;37.07;16.37;;;1.40;99.90;;;;;;4195322;28;20564;-76
2024/03/09 02:08:24;;;;;;;42.20;16.93;;;1.40;99.90;;;;;;4194050;28;20481;-76
2024/03/09 02:10:25;;;;;;;39.83;17.43;;;1.40;99.90;;;;;;4185570;28;20494;-76
2024/03/09 02:12:28;;;;;;;40.03;17.57;;;1.40;99.90;;;;;;4188968;28;20448;-76
2024/03/09 02:14:33;;;;;;;38.50;15.87;;;1.30;99.90;;;;;;4190994;28;20461;-76
2024/03/09 02:16:34;;;;;;;39.03;16.17;;;1.30;99.90;;;;;;4190589;28;20484;-75
2024/03/09 02:18:36;;;;;;;35.60;16.40;;;1.30;99.90;;;;;;4193055;28;20443;-76
2024/03/09 02:20:38;;;;;;;37.50;16.43;;;1.30;99.90;;;;;;4194086;28;20482;-76
2024/03/09 02:22:41;;;;;;;38.10;16.60;;;1.30;99.90;;;;;;4192931;28;20451;-77
2024/03/09 02:24:54;;;;;;;35.83;15.97;;;1.30;99.90;;;;;;4191273;28;20899;-76
2024/03/09 02:26:59;;;;;;;34.83;14.67;;;1.20;99.90;;;;;;4188977;28;20490;-76
2024/03/09 02:29:01;;;;;;;35.70;15.57;;;1.30;99.90;;;;;;4191392;28;20879;-77
2024/03/09 02:31:06;;;;;;;36.90;16.97;;;1.20;99.90;;;;;;4190330;28;21100;-77
2024/03/09 02:33:10;;;;;;;40.97;16.40;;;1.20;99.90;;;;;;4190384;28;20449;-76
2024/03/09 02:35:12;;;;;;;38.50;16.47;;;1.20;99.90;;;;;;4191541;28;20487;-77
2024/03/09 02:37:18;;;;;;;44.90;17.77;;;1.20;99.90;;;;;;4203181;28;20712;-77
2024/03/09 02:39:23;;;;;;;40.47;16.40;;;1.20;99.90;;;;;;4188909;28;20452;-76
2024/03/09 02:41:27;;;;;;;37.73;16.63;;;1.20;99.90;;;;;;4189041;28;20491;-77
2024/03/09 02:43:29;;;;;;;40.97;16.17;;;1.10;99.90;;;;;;4187108;28;20459;-76
2024/03/09 02:45:32;;;;;;;38.47;17.17;;;1.10;99.90;;;;;;4191726;28;20519;-76
2024/03/09 02:47:34;;;;;;;35.63;16.07;;;1.10;99.90;;;;;;4193322;28;20489;-76
2024/03/09 02:49:36;;;;;;;37.53;15.67;;;1.10;99.90;;;;;;4191177;28;20943;-77
2024/03/09 02:51:38;;;;;;;38.83;16.23;;;1.00;99.90;;;;;;4190450;28;20452;-78
2024/03/09 02:53:40;;;;;;;39.73;16.20;;;1.00;99.90;;;;;;4191384;28;21007;-77
2024/03/09 02:55:42;;;;;;;38.53;15.57;;;1.00;99.90;;;;;;4191827;28;20457;-77
2024/03/09 02:57:46;;;;;;;39.10;16.23;;;1.00;99.90;;;;;;4194465;28;20999;-76
2024/03/09 02:59:48;;;;;;;37.73;16.30;;;1.00;99.90;;;;;;4193797;28;20432;-76
2024/03/09 03:01:52;;;;;;;36.37;15.40;;;1.00;99.90;;;;;;4189747;28;20837;-76
2024/03/09 03:03:58;;;;;;;37.40;15.33;;;1.30;99.90;;;;;;4194765;28;20456;-77
2024/03/09 03:05:59;;;;;;;37.67;15.57;;;0.90;99.90;;;;;;4190881;28;20569;-75
2024/03/09 03:08:01;;;;;;;40.80;17.97;;;0.90;99.90;;;;;;4185941;28;20471;-77
2024/03/09 03:10:03;;;;;;;33.97;15.43;;;0.90;99.90;;;;;;4189858;28;20279;-76
2024/03/09 03:12:07;;;;;;;33.87;15.37;;;0.90;99.90;;;;;;4193183;28;20460;-76
2024/03/09 03:14:10;;;;;;;36.13;15.77;;;0.90;99.90;;;;;;4196226;28;20881;-78
2024/03/09 03:16:19;;;;;;;36.67;16.00;;;0.90;99.90;;;;;;4191301;28;20475;-77
2024/03/09 03:18:21;;;;;;;34.50;14.70;;;0.80;99.90;;;;;;4190058;28;20509;-76
2024/03/09 03:20:22;;;;;;;38.90;16.20;;;0.90;99.90;;;;;;4188663;28;20452;-77
2024/03/09 03:22:24;;;;;;;37.97;15.57;;;0.80;99.90;;;;;;4192048;28;20479;-78
2024/03/09 03:24:26;;;;;;;35.33;15.00;;;0.80;99.90;;;;;;4188058;28;20572;-78
2024/03/09 03:26:30;;;;;;;36.30;15.17;;;0.80;99.90;;;;;;4188464;28;20512;-77
2024/03/09 03:28:32;;;;;;;34.63;15.00;;;0.80;99.90;;;;;;4195478;28;20529;-77
2024/03/09 03:30:37;;;;;;;36.97;14.30;;;0.80;99.90;;;;;;4188802;28;20520;-78
2024/03/09 03:32:39;;;;;;;36.57;14.63;;;0.70;99.90;;;;;;4187146;28;20448;-78
2024/03/09 03:34:41;;;;;;;39.70;14.60;;;0.80;99.90;;;;;;4187780;28;20871;-75
2024/03/09 03:36:42;;;;;;;31.10;14.30;;;0.70;99.90;;;;;;4191048;28;20475;-78
2024/03/09 03:38:44;;;;;;;37.87;15.93;;;0.70;99.90;;;;;;4205234;28;20475;-74
2024/03/09 03:40:46;;;;;;;34.07;14.60;;;0.70;99.90;;;;;;4191166;28;20517;-74
2024/03/09 03:42:48;;;;;;;32.03;14.33;;;0.70;99.90;;;;;;4191917;28;20505;-74
2024/03/09 03:44:50;;;;;;;35.60;14.30;;;0.70;99.90;;;;;;4185278;28;20503;-74
2024/03/09 03:46:54;;;;;;;35.03;14.47;;;0.70;99.90;;;;;;4187815;28;20583;-74
2024/03/09 03:48:56;;;;;;;28.73;13.53;;;0.60;99.90;;;;;;4190032;28;20451;-75
2024/03/09 03:50:58;;;;;;;31.60;13.73;;;0.60;99.90;;;;;;4192034;28;20920;-74
2024/03/09 03:53:04;;;;;;;34.07;13.53;;;0.60;99.90;;;;;;4192466;28;20481;-75
2024/03/09 03:55:11;;;;;;;30.73;13.73;;;0.60;99.90;;;;;;4192810;28;20529;-74
2024/03/09 03:57:13;;;;;;;34.37;14.03;;;0.60;99.90;;;;;;4186515;28;20472;-75
2024/03/09 03:59:15;;;;;;;36.63;14.87;;;0.50;99.90;;;;;;4189460;28;20535;-76
2024/03/09 04:01:16;;;;;;;35.97;14.43;;;0.60;99.90;;;;;;4190573;28;20455;-75
2024/03/09 04:03:21;;;;;;;33.50;14.37;;;0.50;99.90;;;;;;4189497;28;20482;-75
2024/03/09 04:05:24;;;;;;;34.57;14.60;;;0.60;99.90;;;;;;4191479;28;20206;-74
2024/03/09 04:07:26;;;;;;;33.40;13.43;;;0.50;99.90;;;;;;4192173;28;20484;-74
2024/03/09 04:09:28;;;;;;;32.63;13.87;;;0.60;99.90;;;;;;4198531;28;20483;-74
2024/03/09 04:11:33;;;;;;;35.00;14.43;;;0.50;99.90;;;;;;4189262;28;20553;-76
2024/03/09 04:13:34;;;;;;;33.70;14.10;;;0.50;99.90;;;;;;4189779;28;20471;-75
2024/03/09 04:15:39;;;;;;;30.60;13.67;;;0.50;99.90;;;;;;4190318;28;20479;-74
2024/03/09 04:17:42;;;;;;;35.43;14.60;;;0.50;99.90;;;;;;4183958;28;20559;-74
2024/03/09 04:19:45;;;;;;;32.83;14.60;;;0.50;99.90;;;;;;4188857;28;20527;-74
2024/03/09 04:21:47;;;;;;;32.73;13.83;;;0.50;99.90;;;;;;4190447;28;20442;-74
2024/03/09 04:23:50;;;;;;;33.23;14.07;;;0.50;99.90;;;;;;4191943;28;20457;-74
2024/03/09 04:25:52;;;;;;;32.67;14.33;;;0.50;99.90;;;;;;4194290;28;20659;-74
2024/03/09 04:27:55;;;;;;;35.20;14.40;;;0.40;99.90;;;;;;4194947;28;20539;-75
2024/03/09 04:29:57;;;;;;;36.83;14.67;;;0.40;99.90;;;;;;4191125;28;20472;-76
2024/03/09 04:31:59;;;;;;;33.00;14.17;;;0.50;99.90;;;;;;4188007;28;20504;-74
2024/03/09 04:34:01;;;;;;;34.07;14.40;;;0.50;99.90;;;;;;4188388;28;20459;-74
2024/03/09 04:36:06;;;;;;;31.47;14.00;;;0.40;99.90;;;;;;4188342;28;20531;-76
2024/03/09 04:38:09;;;;;;;33.57;14.70;;;0.40;99.90;;;;;;4190300;28;20436;-77
2024/03/09 04:40:16;;;;;;;32.80;14.17;;;0.40;99.90;;;;;;4192589;28;20456;-75
2024/03/09 04:42:18;;;;;;;30.23;14.70;;;0.40;99.90;;;;;;4185693;28;20992;-75
2024/03/09 04:44:19;;;;;;;33.30;14.43;;;0.40;99.90;;;;;;4204268;28;20865;-74
2024/03/09 04:46:21;;;;;;;38.30;15.27;;;0.40;99.90;;;;;;4188521;28;20574;-74
2024/03/09 04:48:23;;;;;;;33.60;15.23;;;0.40;99.90;;;;;;4185319;28;20540;-74
2024/03/09 04:50:25;;;;;;;31.63;14.30;;;0.40;99.90;;;;;;4190395;28;20534;-75
2024/03/09 04:52:28;;;;;;;35.40;15.07;;;0.40;99.90;;;;;;4182125;28;20536;-75
2024/03/09 04:54:29;;;;;;;36.27;14.90;;;0.40;99.90;;;;;;4184374;28;20456;-74
2024/03/09 04:56:31;;;;;;;35.97;14.87;;;0.30;99.90;;;;;;4191422;28;20903;-75
2024/03/09 04:58:33;;;;;;;33.10;13.77;;;0.30;99.90;;;;;;4188365;28;20204;-76
2024/03/09 05:00:34;;;;;;;32.93;14.30;;;0.30;99.90;;;;;;4189349;28;20463;-75
2024/03/09 05:02:36;;;;;;;37.90;14.63;;;0.30;99.90;;;;;;4187593;28;20501;-75
2024/03/09 05:04:38;;;;;;;35.53;14.47;;;0.30;99.90;;;;;;4183114;28;20912;-74
2024/03/09 05:06:41;;;;;;;37.20;15.17;;;0.30;99.90;;;;;;4193212;28;20603;-74
2024/03/09 05:08:44;;;;;;;35.70;14.77;;;0.30;99.90;;;;;;4186684;28;20449;-75
2024/03/09 05:10:45;;;;;;;37.67;15.87;;;0.30;99.90;;;;;;4189190;28;20463;-74
2024/03/09 05:12:53;;;;;;;34.03;14.47;;;0.30;99.90;;;;;;4189433;28;20494;-74
2024/03/09 05:14:54;;;;;;;35.70;14.33;;;0.30;99.90;;;;;;4190182;28;20235;-76
2024/03/09 05:16:56;;;;;;;35.63;14.67;;;0.30;99.90;;;;;;4193777;28;20464;-75
2024/03/09 05:18:58;;;;;;;37.40;14.77;;;0.30;99.90;;;;;;4186612;28;20234;-77
2024/03/09 05:21:00;;;;;;;36.30;14.40;;;0.30;99.90;;;;;;4191298;28;20455;-74
2024/03/09 05:23:03;;;;;;;34.10;14.57;;;0.30;99.90;;;;;;4190195;28;20491;-75
2024/03/09 05:25:10;;;;;;;33.27;13.90;;;0.30;99.90;;;;;;4191063;28;20859;-74
2024/03/09 05:27:12;;;;;;;34.43;14.33;;;0.30;99.90;;;;;;4193329;28;20982;-76
2024/03/09 05:29:15;;;;;;;34.40;14.67;;;0.30;99.90;;;;;;4187491;28;20867;-75
2024/03/09 05:31:25;;;;;;;35.00;14.70;;;0.20;99.90;;;;;;4189243;28;20452;-75
2024/03/09 05:33:27;;;;;;;39.10;15.27;;;0.20;99.90;;;;;;4182800;28;20539;-75
2024/03/09 05:35:30;;;;;;;34.87;14.47;;;0.20;99.90;;;;;;4189246;28;20455;-74
2024/03/09 05:37:33;;;;;;;36.07;14.37;;;0.10;99.90;;;;;;4186929;28;20889;-75
2024/03/09 05:39:36;;;;;;;35.10;14.80;;;0.20;99.90;;;;;;4188082;28;20463;-74
2024/03/09 05:41:40;;;;;;;33.87;14.80;;;0.20;99.90;;;;;;4192729;28;20498;-76
2024/03/09 05:43:42;;;;;;;35.43;14.50;;;0.20;99.90;;;;;;4191234;28;21223;-75
2024/03/09 05:45:44;;;;;;;36.17;14.83;;;0.20;99.90;;;;;;4194177;28;20459;-74
2024/03/09 05:47:47;;;;;;;40.23;14.70;;;0.20;99.90;;;;;;4190955;28;21218;-74
2024/03/09 05:49:49;;;;;;;39.17;16.30;;;0.20;99.90;;;;;;4187331;28;20462;-74
2024/03/09 05:51:52;;;;;;;37.30;15.13;;;0.20;99.90;;;;;;4186177;28;20452;-74
2024/03/09 05:53:54;;;;;;;40.67;15.47;;;0.20;99.90;;;;;;4189079;28;20462;-74
2024/03/09 05:55:56;;;;;;;38.73;15.07;;;0.20;99.90;;;;;;4187252;28;20460;-75
2024/03/09 05:57:59;;;;;;;37.43;14.97;;;0.20;99.90;;;;;;4188102;28;20560;-74
2024/03/09 06:00:05;;;;;;;38.93;15.20;;;0.30;99.90;;;;;;4185273;28;20532;-74
2024/03/09 06:02:08;;;;;;;39.07;15.80;;;0.30;99.90;;;;;;4191904;28;20469;-73
2024/03/09 06:04:11;;;;;;;34.20;14.73;;;0.30;99.90;;;;;;4193283;28;20454;-74
2024/03/09 06:06:13;;;;;;;32.57;14.53;;;0.40;99.90;;;;;;4196447;28;20490;-75
2024/03/09 06:08:16;;;;;;;36.03;15.23;;;0.40;99.90;;;;;;4187881;28;20560;-76
2024/03/09 06:10:18;;;;;;;30.63;13.40;;;0.70;99.90;;;;;;4187539;28;20986;-74
2024/03/09 06:12:21;;;;;;;35.97;14.23;;;0.50;99.90;;;;;;4188810;28;20459;-74
2024/03/09 06:14:26;;;;;;;31.97;13.83;;;0.60;99.90;;;;;;4188380;28;20446;-74
2024/03/09 06:16:27;;;;;;;35.83;14.33;;;0.60;99.90;;;;;;4186944;28;20479;-74
2024/03/09 06:18:32;;;;;;;34.43;15.00;;;0.70;99.90;;;;;;4190582;28;20475;-74
2024/03/09 06:20:34;;;;;;;34.40;13.53;;;0.80;99.90;;;;;;4191022;28;20248;-74
2024/03/09 06:22:37;;;;;;;32.97;14.27;;;0.80;99.90;;;;;;4194221;28;20448;-76
2024/03/09 06:24:39;;;;;;;35.70;14.63;;;0.90;99.90;;;;;;4210720;28;20660;-77
2024/03/09 06:26:43;;;;;;;38.07;15.70;;;1.00;99.90;;;;;;4205690;28;20847;-79
2024/03/09 06:28:45;;;;;;;33.83;14.07;;;1.00;99.90;;;;;;4215066;28;20624;-74
2024/03/09 06:30:48;;;;;;;31.63;13.07;;;1.00;99.90;;;;;;4207981;28;20467;-76
2024/03/09 06:32:49;;;;;;;32.80;13.77;;;1.10;99.90;;;;;;4213085;28;20513;-77
2024/03/09 06:34:52;;;;;;;32.07;14.30;;;1.10;99.90;;;;;;4206872;28;20486;-73
2024/03/09 06:36:55;;;;;;;35.80;14.47;;;1.10;99.90;;;;;;4205945;28;20998;-74
2024/03/09 06:38:59;;;;;;;32.73;14.70;;;1.10;99.90;;;;;;4192482;28;20450;-74
2024/03/09 06:41:02;;;;;;;30.10;12.93;;;1.20;99.90;;;;;;4187880;28;20951;-73
2024/03/09 06:43:06;;;;;;;33.63;14.23;;;1.20;99.90;;;;;;4189992;28;20965;-76
2024/03/09 06:45:09;;;;;;;32.87;14.53;;;1.30;99.90;;;;;;4190243;28;20483;-76
2024/03/09 06:47:13;;;;;;;32.67;14.57;;;1.40;99.90;;;;;;4192628;28;20484;-74
2024/03/09 06:49:15;;;;;;;34.80;14.53;;;1.40;99.90;;;;;;4187422;28;20460;-77
2024/03/09 06:51:19;;;;;;;30.30;13.20;;;1.50;99.90;;;;;;4188232;28;20550;-78
2024/03/09 06:53:24;;;;;;;33.03;15.03;;;1.60;99.90;;;;;;4195983;28;20444;-77
2024/03/09 06:55:26;;;;;;;31.90;14.40;;;1.70;99.90;;;;;;4188560;28;20445;-77
2024/03/09 06:57:28;;;;;;;35.53;14.70;;;1.70;99.90;;;;;;4189946;28;20452;-78
2024/03/09 06:59:33;;;;;;;29.70;13.70;;;1.90;99.90;;;;;;4188873;28;20449;-76
2024/03/09 07:01:36;;;;;;;30.50;14.30;;;1.90;99.90;;;;;;4189662;28;20467;-76
2024/03/09 07:03:40;;;;;;;29.23;13.17;;;1.90;99.90;;;;;;4189561;28;20549;-76
2024/03/09 07:05:43;;;;;;;35.03;14.83;;;2.00;99.90;;;;;;4190434;28;20535;-77
2024/03/09 07:07:45;;;;;;;32.63;14.73;;;2.00;99.90;;;;;;4190299;28;20920;-75
2024/03/09 07:09:51;;;;;;;33.73;14.27;;;2.00;99.90;;;;;;4185585;28;20547;-73
2024/03/09 07:11:55;;;;;;;37.13;15.10;;;2.10;99.90;;;;;;4186650;28;20461;-74
2024/03/09 07:13:58;;;;;;;34.73;14.70;;;2.30;99.90;;;;;;4189317;28;20542;-74
2024/03/09 07:16:00;;;;;;;33.97;14.63;;;2.30;99.90;;;;;;4187171;28;20456;-78
2024/03/09 07:18:02;;;;;;;34.30;15.07;;;2.30;99.90;;;;;;4192463;28;20442;-74
2024/03/09 07:20:12;;;;;;;33.80;14.63;;;2.40;99.90;;;;;;4191728;28;20448;-76
2024/03/09 07:22:14;;;;;;;30.63;14.83;;;2.40;99.90;;;;;;4188076;28;20472;-78
2024/03/09 07:24:15;;;;;;;37.20;15.53;;;2.50;99.90;;;;;;4189157;28;20536;-79
2024/03/09 07:26:17;;;;;;;34.60;15.87;;;2.50;99.90;;;;;;4188213;28;20472;-78
2024/03/09 07:28:19;;;;;;;37.40;15.60;;;2.50;99.90;;;;;;4189509;28;20677;-76
2024/03/09 07:30:22;;;;;;;33.87;15.70;;;2.60;99.90;;;;;;4190610;28;20448;-78
2024/03/09 07:32:27;;;;;;;37.67;17.23;;;2.60;99.90;;;;;;4187645;28;21077;-78
2024/03/09 07:34:29;;;;;;;36.60;15.83;;;2.60;99.90;;;;;;4189720;28;21062;-78
2024/03/09 07:36:32;;;;;;;33.40;15.20;;;2.60;99.90;;;;;;4191515;28;20495;-79
2024/03/09 07:38:34;;;;;;;37.03;16.23;;;2.70;99.90;;;;;;4191405;28;21193;-80
2024/03/09 07:40:40;;;;;;;30.53;15.20;;;2.60;99.90;;;;;;4189853;28;20860;-70
2024/03/09 07:42:41;;;;;;;35.40;15.30;;;2.60;99.90;;;;;;4189255;28;20865;-71
2024/03/09 07:44:43;;;;;;;36.33;15.97;;;2.60;99.90;;;;;;4186331;28;20456;-70
2024/03/09 07:46:46;;;;;;;34.67;15.07;;;2.60;99.90;;;;;;4189660;28;20516;-75
2024/03/09 07:48:50;;;;;;;37.37;15.60;;;2.60;99.90;;;;;;4195425;28;20440;-79
2024/03/09 07:50:52;;;;;;;33.00;15.07;;;2.60;99.90;;;;;;4193853;28;20838;-75
2024/03/09 07:52:56;;;;;;;33.27;14.53;;;2.60;99.90;;;;;;4190294;28;20456;-74
2024/03/09 07:54:58;;;;;;;35.63;15.37;;;2.60;99.90;;;;;;4186617;28;20664;-74
2024/03/09 07:57:00;;;;;;;33.10;15.77;;;2.70;99.90;;;;;;4187369;28;20510;-73
2024/03/09 07:59:07;;;;;;;35.87;15.63;;;2.70;99.90;;;;;;4183850;28;20461;-73
2024/03/09 08:01:09;;;;;;;36.43;16.40;;;2.60;99.90;;;;;;4189444;28;20458;-74
2024/03/09 08:03:12;;;;;;;37.07;16.10;;;2.70;99.90;;;;;;4188897;28;20514;-73
2024/03/09 08:05:15;;;;;;;36.37;16.40;;;2.70;99.90;;;;;;4186501;28;20474;-74
2024/03/09 08:07:17;;;;;;;37.13;15.70;;;2.70;99.90;;;;;;4185987;28;20487;-74
2024/03/09 08:09:23;;;;;;;34.87;15.43;;;2.70;99.90;;;;;;4187685;28;20444;-74
2024/03/09 08:11:25;;;;;;;37.53;16.37;;;2.70;99.90;;;;;;4187053;28;20906;-74
2024/03/09 08:13:28;;;;;;;29.67;14.53;;;2.70;99.90;;;;;;4187342;28;20543;-74
2024/03/09 08:15:32;;;;;;;35.53;15.97;;;2.80;99.90;;;;;;4183098;28;20456;-74
2024/03/09 08:17:34;;;;;;;32.83;15.17;;;2.80;99.90;;;;;;4188260;28;20499;-74
2024/03/09 08:19:36;;;;;;;33.33;15.13;;;2.90;99.90;;;;;;4202428;28;20867;-74
2024/03/09 08:21:41;;;;;;;33.67;14.90;;;2.90;99.90;;;;;;4184555;28;20849;-74
2024/03/09 08:23:45;;;;;;;32.67;13.77;;;2.90;99.90;;;;;;4184204;28;20469;-74
2024/03/09 08:25:47;;;;;;;32.30;14.93;;;2.90;99.90;;;;;;4189916;28;20523;-74
2024/03/09 08:27:49;;;;;;;36.67;15.03;;;3.00;99.90;;;;;;4187642;28;20463;-74
2024/03/09 08:29:50;;;;;;;30.57;15.13;;;3.00;99.90;;;;;;4187203;28;20446;-81
2024/03/09 08:31:53;;;;;;;35.10;16.57;;;3.10;99.90;;;;;;4192390;28;20440;-74
2024/03/09 08:33:55;;;;;;;33.73;15.87;;;3.20;99.90;;;;;;4190684;28;20506;-74
2024/03/09 08:35:58;;;;;;;33.80;15.43;;;3.20;99.90;;;;;;4187345;28;20473;-75
2024/03/09 08:38:00;;;;;;;36.10;15.07;;;3.20;99.90;;;;;;4189488;28;20452;-74
2024/03/09 08:40:05;;;;;;;38.33;16.40;;;3.30;99.90;;;;;;4186845;28;20451;-74
2024/03/09 08:42:09;;;;;;;33.20;15.07;;;3.30;99.90;;;;;;4193392;28;20537;-75
2024/03/09 08:44:13;;;;;;;35.20;15.40;;;3.40;99.90;;;;;;4200483;28;20503;-74
2024/03/09 08:46:14;;;;;;;31.60;14.80;;;3.40;99.90;;;;;;4205242;28;20543;-75
2024/03/09 08:48:16;;;;;;;33.83;13.60;;;3.50;99.90;;;;;;4203154;28;20481;-75
2024/03/09 08:50:22;;;;;;;31.43;14.10;;;3.50;99.90;;;;;;4199089;28;20591;-75
2024/03/09 08:52:26;;;;;;;27.10;13.33;;;3.60;99.90;;;;;;4189259;28;20971;-75
2024/03/09 08:54:31;;;;;;;32.87;14.97;;;3.70;99.90;;;;;;4189047;28;20948;-75
2024/03/09 08:56:34;;;;;;;29.93;14.20;;;3.80;99.90;;;;;;4186910;28;20464;-75
2024/03/09 08:58:41;;;;;;;34.20;14.63;;;3.90;99.90;;;;;;4185448;28;20456;-82
2024/03/09 09:00:43;;;;;;;33.23;15.23;;;4.00;99.90;;;;;;4188684;28;20455;-76
2024/03/09 09:02:46;;;;;;;32.40;14.60;;;4.10;99.90;;;;;;4186756;28;20512;-74
2024/03/09 09:04:48;;;;;;;30.90;14.37;;;4.10;99.90;;;;;;4190396;28;20504;-74
2024/03/09 09:06:51;;;;;;;31.07;14.67;;;4.20;99.90;;;;;;4184927;28;20482;-74
2024/03/09 09:08:58;;;;;;;31.43;14.23;;;4.20;99.90;;;;;;4189698;28;20576;-76
2024/03/09 09:11:00;;;;;;;33.37;14.97;;;4.30;99.90;;;;;;4189461;28;20465;-74
2024/03/09 09:13:01;;;;;;;30.50;14.43;;;4.30;99.90;;;;;;4180337;28;20470;-74
2024/03/09 09:15:06;;;;;;;29.77;14.03;;;4.40;99.90;;;;;;4182506;28;20486;-75
2024/03/09 09:17:09;;;;;;;30.33;14.37;;;4.50;99.90;;;;;;4179783;28;20491;-74
2024/03/09 09:19:11;;;;;;;31.40;14.93;;;4.60;99.90;;;;;;4184943;28;20462;-75
2024/03/09 09:21:14;;;;;;;32.50;14.83;;;4.70;99.90;;;;;;4179475;28;20516;-75
2024/03/09 09:23:16;;;;;;;27.73;13.30;;;4.80;99.90;;;;;;4180245;28;20553;-73
2024/03/09 09:25:23;;;;;;;30.47;14.30;;;4.90;99.90;;;;;;4180507;28;20447;-73
2024/03/09 09:27:26;;;;;;;30.57;14.93;;;4.90;99.90;;;;;;4178943;28;20475;-73
2024/03/09 09:29:29;;;;;;;30.73;14.73;;;5.00;99.90;;;;;;4179387;28;20450;-74
2024/03/09 09:31:33;;;;;;;30.40;14.10;;;5.10;99.90;;;;;;4192641;28;20467;-73
2024/03/09 09:33:35;;;;;;;29.17;13.97;;;5.10;99.90;;;;;;4178347;28;20513;-73
2024/03/09 09:35:37;;;;;;;31.37;13.53;;;5.20;99.90;;;;;;4182718;28;20470;-75
2024/03/09 09:37:41;;;;;;;32.97;15.03;;;5.20;99.90;;;;;;4186548;28;20475;-75
2024/03/09 09:39:43;;;;;;;29.33;14.17;;;5.30;99.90;;;;;;4184778;28;20463;-73
2024/03/09 09:41:45;;;;;;;30.40;14.57;;;5.40;99.90;;;;;;4185246;28;20451;-73
2024/03/09 09:43:48;;;;;;;29.63;14.53;;;5.50;99.90;;;;;;4185972;28;20459;-74
2024/03/09 09:45:51;;;;;;;26.43;13.07;;;5.60;99.90;;;;;;4184909;28;20539;-73
2024/03/09 09:47:55;;;;;;;27.80;13.67;;;5.70;99.90;;;;;;4184343;28;20594;-74
2024/03/09 09:49:58;;;;;;;29.67;14.40;;;5.80;99.90;;;;;;4183182;28;20470;-73
2024/03/09 09:52:03;;;;;;;28.40;14.00;;;5.90;99.90;;;;;;4184714;28;20464;-73
2024/03/09 09:54:07;;;;;;;31.37;15.03;;;6.00;99.90;;;;;;4185716;28;20452;-73
2024/03/09 09:56:09;;;;;;;30.13;14.83;;;6.10;99.90;;;;;;4184231;28;20465;-73
2024/03/09 09:58:12;;;;;;;29.00;13.93;;;6.30;99.90;;;;;;4185275;28;20529;-73
2024/03/09 10:00:16;;;;;;;27.63;14.07;;;6.40;99.90;;;;;;4185029;28;20456;-73
2024/03/09 10:02:21;;;;;;;26.90;14.10;;;6.60;99.90;;;;;;4190062;28;20943;-73
2024/03/09 10:04:26;;;;;;;25.93;12.67;;;6.80;99.90;;;;;;4185720;28;20535;-73
2024/03/09 10:06:28;;;;;;;25.37;13.73;;;7.00;99.90;;;;;;4185327;28;20509;-73
2024/03/09 10:08:46;;;;;;;26.97;13.33;;;7.20;99.90;;;;;;4189518;28;20284;-73
2024/03/09 10:10:52;;;;;;;24.43;12.07;;;7.30;99.90;;;;;;4193443;28;20233;-73
2024/03/09 10:13:04;;;;;;;24.17;11.47;;;7.40;99.90;;;;;;4188420;28;20252;-74
2024/03/09 10:15:14;;;;;;;23.10;12.70;;;7.70;99.90;;;;;;4191771;28;20210;-74
2024/03/09 10:17:19;;;;;;;22.90;11.00;;;7.90;99.90;;;;;;4189698;28;20223;-74
2024/03/09 10:19:21;;;;;;;19.43;10.57;;;8.00;99.90;;;;;;4188450;28;20216;-73
2024/03/09 10:21:29;;;;;;;20.97;10.73;;;8.20;99.90;;;;;;4186670;28;20283;-73
2024/03/09 10:23:31;;;;;;;21.27;11.43;;;8.30;99.90;;;;;;4187465;28;20667;-73
2024/03/09 10:25:35;;;;;;;22.13;11.60;;;8.40;99.90;;;;;;4187066;28;20204;-74
2024/03/09 10:27:38;;;;;;;23.77;11.93;;;8.50;99.90;;;;;;4186296;28;20229;-74
2024/03/09 10:29:40;;;;;;;20.33;11.40;;;8.70;99.90;;;;;;4188736;28;20212;-73
2024/03/09 10:31:43;;;;;;;20.03;11.30;;;8.70;99.90;;;;;;4190088;28;20225;-73